ICE25TF BIKF-ENBR
Flight info
| Callsign | ICE25TF |
|---|---|
| Flight time | 1h 53m |
| Altitude | 37000 |
| Route | OSKUM3A OSKUM DCT 63N010W DCT GUNPA/N0459F370 DCT MODNI |
| Aircraft | B38M/M-SDE1FGHILORVWXY/HB1 |
Departure
| Time | 2026-05-06 15:52 |
|---|---|
| Airport | Keflavik International Airport (BIKF) |
Arrival
| Time | 2026-05-06 17:46 |
|---|---|
| Airport | Bergen Airport, Flesland (ENBR) |
| Time | Latitude | Longitude | Altitude | Speed | Heading |
|---|---|---|---|---|---|
| 2026-05-06 15:25 | 63.99372 | -22.62548 | 142 ft | 0 kts | 117° |
| 2026-05-06 15:39 | 63.99376 | -22.62565 | 145 ft | 2 kts | 117° |
| 2026-05-06 15:39 | 63.99384 | -22.62598 | 145 ft | 2 kts | 119° |
| 2026-05-06 15:39 | 63.99392 | -22.62631 | 145 ft | 2 kts | 123° |
| 2026-05-06 15:39 | 63.99402 | -22.62661 | 145 ft | 2 kts | 132° |
| 2026-05-06 15:40 | 63.99414 | -22.62684 | 145 ft | 2 kts | 172° |
| 2026-05-06 15:40 | 63.99425 | -22.62681 | 145 ft | 0 kts | 202° |
| 2026-05-06 15:40 | 63.99425 | -22.62680 | 145 ft | 0 kts | 203° |
| 2026-05-06 15:41 | 63.99425 | -22.62681 | 145 ft | 0 kts | 203° |
| 2026-05-06 15:41 | 63.99423 | -22.62682 | 145 ft | 1 kts | 203° |
| 2026-05-06 15:41 | 63.99423 | -22.62683 | 145 ft | 0 kts | 203° |
| 2026-05-06 15:44 | 63.99421 | -22.62684 | 145 ft | 1 kts | 203° |
| 2026-05-06 15:44 | 63.99390 | -22.62716 | 145 ft | 10 kts | 205° |
| 2026-05-06 15:45 | 63.99290 | -22.62746 | 145 ft | 20 kts | 178° |
| 2026-05-06 15:45 | 63.99200 | -22.62673 | 145 ft | 13 kts | 180° |
| 2026-05-06 15:45 | 63.99106 | -22.62722 | 144 ft | 15 kts | 199° |
| 2026-05-06 15:45 | 63.98989 | -22.62806 | 142 ft | 21 kts | 197° |
| 2026-05-06 15:46 | 63.98872 | -22.62860 | 140 ft | 9 kts | 155° |
| 2026-05-06 15:46 | 63.98855 | -22.62823 | 140 ft | 1 kts | 92° |
| 2026-05-06 15:46 | 63.98854 | -22.62716 | 142 ft | 13 kts | 90° |
| 2026-05-06 15:46 | 63.98854 | -22.62439 | 148 ft | 21 kts | 90° |
| 2026-05-06 15:47 | 63.98853 | -22.62087 | 153 ft | 23 kts | 89° |
| 2026-05-06 15:47 | 63.98855 | -22.61691 | 156 ft | 27 kts | 91° |
| 2026-05-06 15:47 | 63.98851 | -22.61362 | 162 ft | 0 kts | 112° |
| 2026-05-06 15:47 | 63.98852 | -22.61326 | 162 ft | 8 kts | 87° |
| 2026-05-06 15:48 | 63.98836 | -22.61132 | 166 ft | 15 kts | 145° |
| 2026-05-06 15:48 | 63.98710 | -22.61127 | 165 ft | 23 kts | 180° |
| 2026-05-06 15:48 | 63.98526 | -22.61127 | 168 ft | 30 kts | 180° |
| 2026-05-06 15:48 | 63.98284 | -22.61127 | 164 ft | 39 kts | 180° |
| 2026-05-06 15:49 | 63.98130 | -22.60985 | 168 ft | 13 kts | 133° |
| 2026-05-06 15:49 | 63.98050 | -22.60938 | 170 ft | 13 kts | 179° |
| 2026-05-06 15:49 | 63.97933 | -22.60934 | 172 ft | 21 kts | 179° |
| 2026-05-06 15:49 | 63.97752 | -22.60945 | 172 ft | 31 kts | 180° |
| 2026-05-06 15:50 | 63.97502 | -22.60937 | 168 ft | 40 kts | 179° |
| 2026-05-06 15:50 | 63.97215 | -22.60940 | 160 ft | 43 kts | 180° |
| 2026-05-06 15:50 | 63.96902 | -22.60940 | 149 ft | 47 kts | 180° |
| 2026-05-06 15:50 | 63.96679 | -22.60941 | 141 ft | 24 kts | 180° |
| 2026-05-06 15:51 | 63.96502 | -22.60942 | 137 ft | 19 kts | 172° |
| 2026-05-06 15:51 | 63.96460 | -22.60756 | 142 ft | 13 kts | 90° |
| 2026-05-06 15:51 | 63.96462 | -22.60588 | 146 ft | 10 kts | 84° |
| 2026-05-06 15:51 | 63.96505 | -22.60536 | 148 ft | 7 kts | 0° |
| 2026-05-06 15:52 | 63.96603 | -22.60539 | 151 ft | 41 kts | 0° |
| 2026-05-06 15:52 | 63.97172 | -22.60549 | 167 ft | 119 kts | 359° |
| 2026-05-06 15:52 | 63.98201 | -22.60559 | 359 ft | 171 kts | 2° |
| 2026-05-06 15:52 | 63.99504 | -22.60660 | 1044 ft | 204 kts | 360° |
| 2026-05-06 15:53 | 64.01032 | -22.60898 | 1771 ft | 235 kts | 0° |
| 2026-05-06 15:53 | 64.02684 | -22.60498 | 2979 ft | 244 kts | 11° |
| 2026-05-06 15:53 | 64.04350 | -22.60017 | 4576 ft | 230 kts | 8° |
| 2026-05-06 15:53 | 64.05869 | -22.59481 | 5955 ft | 223 kts | 22° |
| 2026-05-06 15:54 | 64.06979 | -22.57105 | 6847 ft | 222 kts | 66° |
| 2026-05-06 15:54 | 64.07100 | -22.53533 | 7618 ft | 238 kts | 97° |
| 2026-05-06 15:54 | 64.06788 | -22.49777 | 7806 ft | 241 kts | 93° |
| 2026-05-06 15:54 | 64.06607 | -22.45982 | 7985 ft | 241 kts | 92° |
| 2026-05-06 15:55 | 64.06394 | -22.42162 | 8176 ft | 247 kts | 105° |
| 2026-05-06 15:55 | 64.05588 | -22.38701 | 9034 ft | 248 kts | 115° |
| 2026-05-06 15:55 | 64.04731 | -22.35253 | 9890 ft | 251 kts | 115° |
| 2026-05-06 15:55 | 64.03864 | -22.31752 | 10687 ft | 255 kts | 115° |
| 2026-05-06 15:56 | 64.02982 | -22.28193 | 11421 ft | 260 kts | 116° |
| 2026-05-06 15:56 | 64.02078 | -22.24563 | 12072 ft | 271 kts | 116° |
| 2026-05-06 15:56 | 64.01114 | -22.20685 | 12463 ft | 291 kts | 116° |
| 2026-05-06 15:56 | 64.00078 | -22.16546 | 12804 ft | 311 kts | 116° |
| 2026-05-06 15:57 | 63.98974 | -22.12139 | 13177 ft | 328 kts | 116° |
| 2026-05-06 15:57 | 63.97822 | -22.07547 | 13685 ft | 338 kts | 116° |
| 2026-05-06 15:57 | 63.96651 | -22.02893 | 14482 ft | 340 kts | 116° |
| 2026-05-06 15:57 | 63.95467 | -21.98202 | 15161 ft | 344 kts | 116° |
| 2026-05-06 15:58 | 63.94271 | -21.93466 | 15924 ft | 346 kts | 117° |
| 2026-05-06 15:58 | 63.93070 | -21.88718 | 16674 ft | 348 kts | 117° |
| 2026-05-06 15:58 | 63.91854 | -21.83923 | 17317 ft | 352 kts | 116° |
| 2026-05-06 15:58 | 63.90621 | -21.79068 | 18001 ft | 356 kts | 116° |
| 2026-05-06 15:59 | 63.89377 | -21.74188 | 18632 ft | 360 kts | 116° |
| 2026-05-06 15:59 | 63.88114 | -21.69246 | 19196 ft | 363 kts | 116° |
| 2026-05-06 15:59 | 63.86843 | -21.64275 | 19768 ft | 366 kts | 116° |
| 2026-05-06 15:59 | 63.85576 | -21.59340 | 20312 ft | 368 kts | 116° |
| 2026-05-06 16:00 | 63.84281 | -21.54300 | 20875 ft | 371 kts | 116° |
| 2026-05-06 16:00 | 63.82976 | -21.49236 | 21431 ft | 374 kts | 116° |
| 2026-05-06 16:00 | 63.81653 | -21.44114 | 21992 ft | 377 kts | 116° |
| 2026-05-06 16:00 | 63.80321 | -21.38970 | 22526 ft | 380 kts | 116° |
| 2026-05-06 16:01 | 63.78977 | -21.33790 | 23046 ft | 383 kts | 117° |
| 2026-05-06 16:01 | 63.77620 | -21.28570 | 23557 ft | 386 kts | 116° |
| 2026-05-06 16:01 | 63.76474 | -21.23110 | 23989 ft | 383 kts | 102° |
| 2026-05-06 16:01 | 63.75994 | -21.17203 | 24363 ft | 384 kts | 96° |
| 2026-05-06 16:02 | 63.75578 | -21.11204 | 24729 ft | 388 kts | 96° |
| 2026-05-06 16:02 | 63.75176 | -21.05168 | 25172 ft | 390 kts | 96° |
| 2026-05-06 16:02 | 63.74783 | -20.99099 | 25587 ft | 392 kts | 96° |
| 2026-05-06 16:02 | 63.74391 | -20.92969 | 25941 ft | 396 kts | 96° |
| 2026-05-06 16:03 | 63.73998 | -20.86800 | 26308 ft | 399 kts | 96° |
| 2026-05-06 16:03 | 63.73599 | -20.80570 | 26666 ft | 402 kts | 96° |
| 2026-05-06 16:03 | 63.73195 | -20.74299 | 27000 ft | 405 kts | 96° |
| 2026-05-06 16:03 | 63.72785 | -20.67979 | 27354 ft | 409 kts | 96° |
| 2026-05-06 16:04 | 63.72369 | -20.61611 | 27688 ft | 412 kts | 96° |
| 2026-05-06 16:04 | 63.71948 | -20.55205 | 28021 ft | 415 kts | 96° |
| 2026-05-06 16:04 | 63.71521 | -20.48746 | 28354 ft | 418 kts | 96° |
| 2026-05-06 16:04 | 63.71143 | -20.42224 | 28669 ft | 420 kts | 94° |
| 2026-05-06 16:05 | 63.70811 | -20.35656 | 28983 ft | 423 kts | 94° |
| 2026-05-06 16:05 | 63.70465 | -20.29047 | 29299 ft | 426 kts | 95° |
| 2026-05-06 16:05 | 63.70111 | -20.22413 | 29609 ft | 429 kts | 95° |
| 2026-05-06 16:05 | 63.69749 | -20.15701 | 29911 ft | 431 kts | 95° |
| 2026-05-06 16:06 | 63.69383 | -20.08965 | 30204 ft | 434 kts | 95° |
| 2026-05-06 16:06 | 63.69010 | -20.02192 | 30445 ft | 437 kts | 95° |
| 2026-05-06 16:06 | 63.68637 | -19.95465 | 30672 ft | 440 kts | 95° |
| 2026-05-06 16:06 | 63.68249 | -19.88524 | 30901 ft | 442 kts | 95° |
| 2026-05-06 16:07 | 63.67860 | -19.81621 | 31132 ft | 445 kts | 95° |
| 2026-05-06 16:07 | 63.67471 | -19.74788 | 31359 ft | 448 kts | 95° |
| 2026-05-06 16:07 | 63.67071 | -19.67810 | 31598 ft | 450 kts | 96° |
| 2026-05-06 16:07 | 63.66664 | -19.60790 | 31804 ft | 453 kts | 96° |
| 2026-05-06 16:08 | 63.66253 | -19.53744 | 32031 ft | 456 kts | 96° |
| 2026-05-06 16:08 | 63.65836 | -19.46680 | 32315 ft | 457 kts | 95° |
| 2026-05-06 16:08 | 63.65415 | -19.39567 | 32556 ft | 459 kts | 94° |
| 2026-05-06 16:08 | 63.64987 | -19.32432 | 32774 ft | 461 kts | 96° |
| 2026-05-06 16:09 | 63.64554 | -19.25281 | 33028 ft | 462 kts | 95° |
| 2026-05-06 16:09 | 63.64118 | -19.18109 | 33290 ft | 463 kts | 96° |
| 2026-05-06 16:09 | 63.63677 | -19.10940 | 33531 ft | 464 kts | 95° |
| 2026-05-06 16:09 | 63.63228 | -19.03706 | 33775 ft | 466 kts | 95° |
| 2026-05-06 16:10 | 63.62777 | -18.96481 | 33992 ft | 467 kts | 95° |
| 2026-05-06 16:10 | 63.62475 | -18.91688 | 34176 ft | 467 kts | 96° |
| 2026-05-06 16:10 | 63.62015 | -18.84446 | 34381 ft | 469 kts | 96° |
| 2026-05-06 16:10 | 63.61552 | -18.77184 | 34580 ft | 469 kts | 97° |
| 2026-05-06 16:11 | 63.61085 | -18.69945 | 34862 ft | 468 kts | 96° |
| 2026-05-06 16:11 | 63.60614 | -18.62698 | 35058 ft | 469 kts | 96° |
| 2026-05-06 16:11 | 63.60138 | -18.55424 | 35234 ft | 470 kts | 96° |
| 2026-05-06 16:11 | 63.59658 | -18.48169 | 35491 ft | 470 kts | 96° |
| 2026-05-06 16:12 | 63.59175 | -18.40906 | 35666 ft | 471 kts | 96° |
| 2026-05-06 16:12 | 63.58688 | -18.33625 | 35844 ft | 472 kts | 97° |
| 2026-05-06 16:12 | 63.58194 | -18.26335 | 36123 ft | 471 kts | 97° |
| 2026-05-06 16:12 | 63.57697 | -18.19046 | 36271 ft | 473 kts | 96° |
| 2026-05-06 16:13 | 63.57198 | -18.11763 | 36470 ft | 473 kts | 98° |
| 2026-05-06 16:13 | 63.56693 | -18.04482 | 36735 ft | 472 kts | 97° |
| 2026-05-06 16:13 | 63.56190 | -17.97272 | 36848 ft | 475 kts | 97° |
| 2026-05-06 16:13 | 63.55678 | -17.89966 | 37079 ft | 474 kts | 97° |
| 2026-05-06 16:14 | 63.55160 | -17.82659 | 37189 ft | 475 kts | 98° |
| 2026-05-06 16:14 | 63.54637 | -17.75321 | 37148 ft | 477 kts | 97° |
| 2026-05-06 16:14 | 63.53580 | -17.60674 | 37160 ft | 475 kts | 98° |
| 2026-05-06 16:15 | 63.52510 | -17.46046 | 37166 ft | 476 kts | 98° |
| 2026-05-06 16:15 | 63.51424 | -17.31430 | 37166 ft | 476 kts | 98° |
| 2026-05-06 16:16 | 63.50325 | -17.16850 | 37152 ft | 475 kts | 97° |
| 2026-05-06 16:16 | 63.49208 | -17.02220 | 37161 ft | 476 kts | 98° |
| 2026-05-06 16:17 | 63.48076 | -16.87609 | 37157 ft | 477 kts | 99° |
| 2026-05-06 16:17 | 63.46928 | -16.73026 | 37149 ft | 475 kts | 98° |
| 2026-05-06 16:18 | 63.45765 | -16.58421 | 37160 ft | 477 kts | 98° |
| 2026-05-06 16:18 | 63.44589 | -16.43851 | 37168 ft | 477 kts | 99° |
| 2026-05-06 16:19 | 63.43396 | -16.29281 | 37155 ft | 476 kts | 98° |
| 2026-05-06 16:19 | 63.42187 | -16.14704 | 37162 ft | 477 kts | 99° |
| 2026-05-06 16:20 | 63.40964 | -16.00142 | 37168 ft | 479 kts | 99° |
| 2026-05-06 16:20 | 63.39722 | -15.85554 | 37146 ft | 478 kts | 99° |
| 2026-05-06 16:21 | 63.38473 | -15.71065 | 37158 ft | 478 kts | 99° |
| 2026-05-06 16:21 | 63.37204 | -15.56518 | 37158 ft | 479 kts | 100° |
| 2026-05-06 16:22 | 63.35918 | -15.41976 | 37145 ft | 478 kts | 100° |
| 2026-05-06 16:22 | 63.34615 | -15.27407 | 37154 ft | 479 kts | 101° |
| 2026-05-06 16:23 | 63.33297 | -15.12857 | 37157 ft | 481 kts | 100° |
| 2026-05-06 16:23 | 63.31963 | -14.98301 | 37130 ft | 479 kts | 100° |
| 2026-05-06 16:24 | 63.30613 | -14.83760 | 37144 ft | 479 kts | 101° |
| 2026-05-06 16:24 | 63.29253 | -14.69268 | 37144 ft | 480 kts | 100° |
| 2026-05-06 16:25 | 63.27873 | -14.54745 | 37142 ft | 481 kts | 101° |
| 2026-05-06 16:25 | 63.26471 | -14.40158 | 37140 ft | 483 kts | 101° |
| 2026-05-06 16:26 | 63.25055 | -14.25600 | 37134 ft | 484 kts | 101° |
| 2026-05-06 16:26 | 63.23625 | -14.11053 | 37113 ft | 481 kts | 102° |
| 2026-05-06 16:27 | 63.22178 | -13.96513 | 37143 ft | 482 kts | 102° |
| 2026-05-06 16:27 | 63.20720 | -13.82009 | 37137 ft | 483 kts | 102° |
| 2026-05-06 16:28 | 63.19253 | -13.67590 | 37112 ft | 483 kts | 102° |
| 2026-05-06 16:28 | 63.17746 | -13.52934 | 37131 ft | 485 kts | 102° |
| 2026-05-06 16:29 | 63.16250 | -13.38531 | 37124 ft | 484 kts | 102° |
| 2026-05-06 16:29 | 63.14724 | -13.24020 | 37111 ft | 483 kts | 102° |
| 2026-05-06 16:30 | 63.13436 | -13.11879 | 37119 ft | 485 kts | 103° |
| 2026-05-06 16:30 | 63.11627 | -12.95010 | 37101 ft | 487 kts | 103° |
| 2026-05-06 16:31 | 63.10047 | -12.80453 | 37106 ft | 486 kts | 103° |
| 2026-05-06 16:31 | 63.08455 | -12.65931 | 37125 ft | 488 kts | 103° |
| 2026-05-06 16:32 | 63.06851 | -12.51447 | 37095 ft | 486 kts | 103° |
| 2026-05-06 16:32 | 63.05225 | -12.36920 | 37102 ft | 487 kts | 103° |
| 2026-05-06 16:33 | 63.03588 | -12.22447 | 37107 ft | 488 kts | 104° |
| 2026-05-06 16:34 | 63.01105 | -12.00762 | 37112 ft | 487 kts | 104° |
| 2026-05-06 16:34 | 62.99435 | -11.86354 | 37079 ft | 485 kts | 104° |
| 2026-05-06 16:35 | 62.97748 | -11.71942 | 37099 ft | 487 kts | 104° |
| 2026-05-06 16:35 | 62.96058 | -11.57653 | 37074 ft | 487 kts | 104° |
| 2026-05-06 16:36 | 62.94338 | -11.43248 | 37086 ft | 486 kts | 105° |
| 2026-05-06 16:36 | 62.92605 | -11.28870 | 37096 ft | 488 kts | 105° |
| 2026-05-06 16:37 | 62.90857 | -11.14514 | 37065 ft | 486 kts | 105° |
| 2026-05-06 16:37 | 62.89095 | -11.00174 | 37087 ft | 486 kts | 105° |
| 2026-05-06 16:38 | 62.87320 | -10.85863 | 37088 ft | 487 kts | 105° |
| 2026-05-06 16:38 | 62.85530 | -10.71568 | 37076 ft | 486 kts | 105° |
| 2026-05-06 16:39 | 62.83727 | -10.57294 | 37083 ft | 487 kts | 105° |
| 2026-05-06 16:39 | 62.81911 | -10.43054 | 37084 ft | 487 kts | 105° |
| 2026-05-06 16:40 | 62.80078 | -10.28816 | 37075 ft | 485 kts | 106° |
| 2026-05-06 16:40 | 62.78232 | -10.14598 | 37085 ft | 487 kts | 106° |
| 2026-05-06 16:41 | 62.76373 | -10.00417 | 37058 ft | 486 kts | 106° |
| 2026-05-06 16:41 | 62.74496 | -9.86216 | 37073 ft | 487 kts | 106° |
| 2026-05-06 16:42 | 62.72619 | -9.72151 | 37069 ft | 487 kts | 106° |
| 2026-05-06 16:42 | 62.70714 | -9.57990 | 37071 ft | 487 kts | 107° |
| 2026-05-06 16:43 | 62.68794 | -9.43847 | 37065 ft | 487 kts | 107° |
| 2026-05-06 16:43 | 62.66859 | -9.29719 | 37058 ft | 487 kts | 107° |
| 2026-05-06 16:44 | 62.64912 | -9.15620 | 37064 ft | 487 kts | 107° |
| 2026-05-06 16:44 | 62.62949 | -9.01532 | 37062 ft | 487 kts | 107° |
| 2026-05-06 16:45 | 62.60972 | -8.87460 | 37075 ft | 487 kts | 107° |
| 2026-05-06 16:45 | 62.58982 | -8.73412 | 37059 ft | 487 kts | 107° |
| 2026-05-06 16:46 | 62.56979 | -8.59392 | 37051 ft | 487 kts | 107° |
| 2026-05-06 16:46 | 62.54959 | -8.45375 | 37060 ft | 488 kts | 108° |
| 2026-05-06 16:47 | 62.52936 | -8.31447 | 37055 ft | 488 kts | 108° |
| 2026-05-06 16:47 | 62.50886 | -8.17449 | 37048 ft | 488 kts | 108° |
| 2026-05-06 16:48 | 62.48822 | -8.03474 | 37047 ft | 488 kts | 108° |
| 2026-05-06 16:48 | 62.46744 | -7.89517 | 37038 ft | 488 kts | 108° |
| 2026-05-06 16:49 | 62.44653 | -7.75582 | 37037 ft | 488 kts | 108° |
| 2026-05-06 16:49 | 62.42548 | -7.61669 | 37035 ft | 488 kts | 108° |
| 2026-05-06 16:50 | 62.40428 | -7.47763 | 37031 ft | 488 kts | 109° |
| 2026-05-06 16:50 | 62.38295 | -7.33887 | 37037 ft | 488 kts | 109° |
| 2026-05-06 16:51 | 62.36147 | -7.20023 | 37022 ft | 488 kts | 109° |
| 2026-05-06 16:51 | 62.33985 | -7.06180 | 36994 ft | 488 kts | 109° |
| 2026-05-06 16:52 | 62.31806 | -6.92332 | 37031 ft | 489 kts | 109° |
| 2026-05-06 16:52 | 62.29612 | -6.78493 | 37026 ft | 489 kts | 109° |
| 2026-05-06 16:53 | 62.27403 | -6.64674 | 37034 ft | 489 kts | 109° |
| 2026-05-06 16:53 | 62.25184 | -6.50894 | 37025 ft | 489 kts | 109° |
| 2026-05-06 16:54 | 62.22944 | -6.37088 | 37032 ft | 490 kts | 110° |
| 2026-05-06 16:54 | 62.20691 | -6.23312 | 37038 ft | 490 kts | 110° |
| 2026-05-06 16:55 | 62.18424 | -6.09547 | 37039 ft | 490 kts | 110° |
| 2026-05-06 16:55 | 62.16142 | -5.95801 | 37039 ft | 490 kts | 110° |
| 2026-05-06 16:56 | 62.13850 | -5.82092 | 37034 ft | 490 kts | 110° |
| 2026-05-06 16:56 | 62.11556 | -5.68477 | 37030 ft | 490 kts | 110° |
| 2026-05-06 16:57 | 62.09232 | -5.54784 | 37036 ft | 492 kts | 110° |
| 2026-05-06 16:57 | 62.06893 | -5.41100 | 37033 ft | 492 kts | 111° |
| 2026-05-06 16:58 | 62.04530 | -5.27379 | 37031 ft | 492 kts | 111° |
| 2026-05-06 16:58 | 62.02160 | -5.13715 | 37029 ft | 492 kts | 111° |
| 2026-05-06 16:59 | 61.99774 | -5.00062 | 37035 ft | 492 kts | 111° |
| 2026-05-06 16:59 | 61.97373 | -4.86415 | 37030 ft | 492 kts | 111° |
| 2026-05-06 17:00 | 61.95367 | -4.75093 | 37028 ft | 492 kts | 111° |
| 2026-05-06 17:00 | 61.92942 | -4.61494 | 37032 ft | 492 kts | 111° |
| 2026-05-06 17:01 | 61.90502 | -4.47909 | 37029 ft | 492 kts | 111° |
| 2026-05-06 17:01 | 61.88051 | -4.34359 | 37026 ft | 492 kts | 111° |
| 2026-05-06 17:02 | 61.85587 | -4.20826 | 37011 ft | 492 kts | 112° |
| 2026-05-06 17:02 | 61.83107 | -4.07304 | 37028 ft | 494 kts | 112° |
| 2026-05-06 17:03 | 61.80628 | -3.93884 | 37018 ft | 493 kts | 112° |
| 2026-05-06 17:03 | 61.78126 | -3.80426 | 37022 ft | 493 kts | 112° |
| 2026-05-06 17:04 | 61.75600 | -3.66937 | 37020 ft | 493 kts | 112° |
| 2026-05-06 17:04 | 61.73063 | -3.53480 | 37029 ft | 493 kts | 112° |
| 2026-05-06 17:05 | 61.70514 | -3.40053 | 37016 ft | 493 kts | 112° |
| 2026-05-06 17:05 | 61.67954 | -3.26658 | 37018 ft | 493 kts | 113° |
| 2026-05-06 17:06 | 61.65382 | -3.13291 | 35114 ft | 493 kts | 112° |
| 2026-05-06 17:06 | 61.64097 | -3.06639 | 37143 ft | 490 kts | 113° |
| 2026-05-06 17:06 | 61.62805 | -2.99985 | 37009 ft | 492 kts | 113° |
| 2026-05-06 17:07 | 61.60211 | -2.86683 | 37028 ft | 493 kts | 113° |
| 2026-05-06 17:07 | 61.57597 | -2.73365 | 37012 ft | 492 kts | 113° |
| 2026-05-06 17:08 | 61.54991 | -2.60178 | 37011 ft | 492 kts | 113° |
| 2026-05-06 17:08 | 61.52338 | -2.46839 | 37010 ft | 492 kts | 114° |
| 2026-05-06 17:09 | 61.49690 | -2.33616 | 37008 ft | 492 kts | 114° |
| 2026-05-06 17:09 | 61.47048 | -2.20504 | 37012 ft | 492 kts | 114° |
| 2026-05-06 17:10 | 61.44373 | -2.07317 | 37014 ft | 492 kts | 114° |
| 2026-05-06 17:10 | 61.41689 | -1.94165 | 37011 ft | 492 kts | 114° |
| 2026-05-06 17:11 | 61.38995 | -1.81041 | 37009 ft | 492 kts | 114° |
| 2026-05-06 17:11 | 61.36291 | -1.67937 | 37011 ft | 492 kts | 114° |
| 2026-05-06 17:12 | 61.33577 | -1.54861 | 37013 ft | 492 kts | 115° |
| 2026-05-06 17:12 | 61.30847 | -1.41787 | 37009 ft | 493 kts | 115° |
| 2026-05-06 17:13 | 61.28104 | -1.28732 | 37007 ft | 492 kts | 115° |
| 2026-05-06 17:13 | 61.25354 | -1.15716 | 37007 ft | 492 kts | 115° |
| 2026-05-06 17:14 | 61.22588 | -1.02703 | 37010 ft | 492 kts | 115° |
| 2026-05-06 17:14 | 61.19814 | -0.89725 | 37009 ft | 492 kts | 115° |
| 2026-05-06 17:15 | 61.17028 | -0.76769 | 37008 ft | 492 kts | 115° |
| 2026-05-06 17:15 | 61.14230 | -0.63832 | 37012 ft | 492 kts | 115° |
| 2026-05-06 17:16 | 61.11420 | -0.50925 | 37008 ft | 492 kts | 116° |
| 2026-05-06 17:16 | 61.08596 | -0.38041 | 37013 ft | 492 kts | 116° |
| 2026-05-06 17:17 | 61.05756 | -0.25168 | 37010 ft | 492 kts | 116° |
| 2026-05-06 17:17 | 61.02908 | -0.12334 | 36992 ft | 493 kts | 116° |
| 2026-05-06 17:18 | 61.00023 | 0.00405 | 37009 ft | 494 kts | 117° |
| 2026-05-06 17:18 | 60.97112 | 0.13215 | 37013 ft | 494 kts | 116° |
| 2026-05-06 17:19 | 60.94247 | 0.26044 | 37013 ft | 494 kts | 116° |
| 2026-05-06 17:19 | 60.91370 | 0.38887 | 37012 ft | 494 kts | 116° |
| 2026-05-06 17:20 | 60.88498 | 0.51687 | 37008 ft | 494 kts | 114° |
| 2026-05-06 17:20 | 60.87567 | 0.58450 | 36987 ft | 494 kts | 96° |
| 2026-05-06 17:20 | 60.87339 | 0.65492 | 37022 ft | 495 kts | 96° |
| 2026-05-06 17:21 | 60.86501 | 0.79551 | 37062 ft | 498 kts | 98° |
| 2026-05-06 17:21 | 60.85599 | 0.93583 | 36417 ft | 494 kts | 98° |
| 2026-05-06 17:21 | 60.85138 | 1.00623 | 35452 ft | 501 kts | 98° |
| 2026-05-06 17:22 | 60.84668 | 1.07736 | 34662 ft | 505 kts | 98° |
| 2026-05-06 17:22 | 60.84196 | 1.14847 | 34153 ft | 501 kts | 98° |
| 2026-05-06 17:22 | 60.83727 | 1.21875 | 33702 ft | 494 kts | 98° |
| 2026-05-06 17:22 | 60.83260 | 1.28818 | 33167 ft | 490 kts | 98° |
| 2026-05-06 17:23 | 60.82792 | 1.35704 | 32588 ft | 487 kts | 98° |
| 2026-05-06 17:23 | 60.82321 | 1.42573 | 32027 ft | 485 kts | 98° |
| 2026-05-06 17:23 | 60.81851 | 1.49388 | 31483 ft | 482 kts | 98° |
| 2026-05-06 17:23 | 60.81379 | 1.56166 | 30942 ft | 480 kts | 98° |
| 2026-05-06 17:24 | 60.80906 | 1.62919 | 30395 ft | 478 kts | 98° |
| 2026-05-06 17:24 | 60.80431 | 1.69643 | 29793 ft | 477 kts | 98° |
| 2026-05-06 17:24 | 60.79953 | 1.76368 | 29163 ft | 475 kts | 98° |
| 2026-05-06 17:24 | 60.79475 | 1.83038 | 28639 ft | 471 kts | 98° |
| 2026-05-06 17:25 | 60.78998 | 1.89651 | 28111 ft | 468 kts | 98° |
| 2026-05-06 17:25 | 60.78520 | 1.96222 | 27579 ft | 466 kts | 98° |
| 2026-05-06 17:25 | 60.78042 | 2.02758 | 27056 ft | 463 kts | 98° |
| 2026-05-06 17:25 | 60.77562 | 2.09265 | 26539 ft | 461 kts | 99° |
| 2026-05-06 17:26 | 60.77083 | 2.15732 | 26038 ft | 459 kts | 99° |
| 2026-05-06 17:26 | 60.76600 | 2.22185 | 25521 ft | 458 kts | 99° |
| 2026-05-06 17:26 | 60.76117 | 2.28611 | 25020 ft | 456 kts | 99° |
| 2026-05-06 17:26 | 60.75632 | 2.35023 | 24534 ft | 455 kts | 99° |
| 2026-05-06 17:27 | 60.75145 | 2.41408 | 24040 ft | 455 kts | 99° |
| 2026-05-06 17:27 | 60.74655 | 2.47799 | 23546 ft | 454 kts | 99° |
| 2026-05-06 17:27 | 60.74164 | 2.54159 | 22981 ft | 453 kts | 99° |
| 2026-05-06 17:27 | 60.73670 | 2.60506 | 22494 ft | 450 kts | 99° |
| 2026-05-06 17:28 | 60.73179 | 2.66795 | 22041 ft | 446 kts | 99° |
| 2026-05-06 17:28 | 60.72689 | 2.73008 | 21620 ft | 443 kts | 99° |
| 2026-05-06 17:28 | 60.72198 | 2.79218 | 21080 ft | 439 kts | 99° |
| 2026-05-06 17:28 | 60.71716 | 2.85268 | 20665 ft | 436 kts | 100° |
| 2026-05-06 17:29 | 60.71229 | 2.91353 | 20226 ft | 433 kts | 100° |
| 2026-05-06 17:29 | 60.70742 | 2.97396 | 19794 ft | 430 kts | 100° |
| 2026-05-06 17:29 | 60.70255 | 3.03407 | 19353 ft | 428 kts | 100° |
| 2026-05-06 17:29 | 60.69767 | 3.09389 | 18913 ft | 426 kts | 100° |
| 2026-05-06 17:30 | 60.69279 | 3.15339 | 18467 ft | 424 kts | 100° |
| 2026-05-06 17:30 | 60.68790 | 3.21260 | 17988 ft | 422 kts | 100° |
| 2026-05-06 17:30 | 60.68302 | 3.27153 | 17526 ft | 419 kts | 100° |
| 2026-05-06 17:30 | 60.67816 | 3.32978 | 17097 ft | 414 kts | 100° |
| 2026-05-06 17:31 | 60.67336 | 3.38694 | 16676 ft | 403 kts | 100° |
| 2026-05-06 17:31 | 60.66870 | 3.44229 | 16278 ft | 388 kts | 100° |
| 2026-05-06 17:31 | 60.66419 | 3.49555 | 15879 ft | 374 kts | 100° |
| 2026-05-06 17:31 | 60.65981 | 3.54697 | 15496 ft | 362 kts | 100° |
| 2026-05-06 17:32 | 60.65557 | 3.59657 | 15120 ft | 350 kts | 100° |
| 2026-05-06 17:32 | 60.65145 | 3.64455 | 14756 ft | 338 kts | 101° |
| 2026-05-06 17:32 | 60.64634 | 3.69087 | 14251 ft | 332 kts | 104° |
| 2026-05-06 17:32 | 60.64091 | 3.73650 | 13607 ft | 330 kts | 104° |
| 2026-05-06 17:33 | 60.63561 | 3.78179 | 12923 ft | 328 kts | 104° |
| 2026-05-06 17:33 | 60.63036 | 3.82688 | 12239 ft | 327 kts | 104° |
| 2026-05-06 17:33 | 60.62514 | 3.87171 | 11663 ft | 322 kts | 104° |
| 2026-05-06 17:33 | 60.62005 | 3.91536 | 11278 ft | 312 kts | 104° |
| 2026-05-06 17:34 | 60.61513 | 3.95752 | 11011 ft | 301 kts | 104° |
| 2026-05-06 17:34 | 60.61023 | 3.99932 | 10736 ft | 310 kts | 104° |
| 2026-05-06 17:34 | 60.60520 | 4.04213 | 10513 ft | 309 kts | 104° |
| 2026-05-06 17:34 | 60.60025 | 4.08407 | 10387 ft | 300 kts | 103° |
| 2026-05-06 17:35 | 60.59553 | 4.12404 | 10272 ft | 290 kts | 103° |
| 2026-05-06 17:35 | 60.59086 | 4.16347 | 10145 ft | 284 kts | 103° |
| 2026-05-06 17:35 | 60.58620 | 4.20266 | 10063 ft | 286 kts | 103° |
| 2026-05-06 17:36 | 60.57680 | 4.28139 | 10032 ft | 286 kts | 104° |
| 2026-05-06 17:36 | 60.57210 | 4.32070 | 10033 ft | 286 kts | 104° |
| 2026-05-06 17:36 | 60.56737 | 4.36008 | 10038 ft | 287 kts | 104° |
| 2026-05-06 17:36 | 60.56262 | 4.39950 | 10038 ft | 287 kts | 104° |
| 2026-05-06 17:37 | 60.55787 | 4.43880 | 10039 ft | 286 kts | 104° |
| 2026-05-06 17:37 | 60.55311 | 4.47809 | 10033 ft | 285 kts | 104° |
| 2026-05-06 17:37 | 60.54837 | 4.51713 | 9704 ft | 285 kts | 104° |
| 2026-05-06 17:37 | 60.54362 | 4.55610 | 9396 ft | 283 kts | 104° |
| 2026-05-06 17:38 | 60.53890 | 4.59477 | 9049 ft | 282 kts | 104° |
| 2026-05-06 17:38 | 60.53418 | 4.63332 | 8730 ft | 280 kts | 104° |
| 2026-05-06 17:38 | 60.52947 | 4.67171 | 8401 ft | 279 kts | 104° |
| 2026-05-06 17:38 | 60.52477 | 4.70985 | 8084 ft | 278 kts | 104° |
| 2026-05-06 17:39 | 60.52011 | 4.74758 | 7652 ft | 276 kts | 104° |
| 2026-05-06 17:39 | 60.51540 | 4.78567 | 7104 ft | 279 kts | 104° |
| 2026-05-06 17:39 | 60.51066 | 4.82389 | 6581 ft | 281 kts | 104° |
| 2026-05-06 17:39 | 60.50588 | 4.86234 | 6036 ft | 282 kts | 104° |
| 2026-05-06 17:40 | 60.50105 | 4.90107 | 5484 ft | 283 kts | 104° |
| 2026-05-06 17:40 | 60.49622 | 4.93968 | 4933 ft | 282 kts | 104° |
| 2026-05-06 17:40 | 60.49141 | 4.97811 | 4373 ft | 280 kts | 105° |
| 2026-05-06 17:40 | 60.48669 | 5.01618 | 3819 ft | 277 kts | 102° |
| 2026-05-06 17:41 | 60.48312 | 5.05439 | 3308 ft | 274 kts | 101° |
| 2026-05-06 17:41 | 60.47971 | 5.09156 | 3075 ft | 260 kts | 101° |
| 2026-05-06 17:41 | 60.47624 | 5.12602 | 3051 ft | 238 kts | 108° |
| 2026-05-06 17:41 | 60.46743 | 5.15200 | 3031 ft | 217 kts | 148° |
| 2026-05-06 17:42 | 60.45418 | 5.16216 | 3074 ft | 195 kts | 172° |
| 2026-05-06 17:42 | 60.44137 | 5.16753 | 2985 ft | 185 kts | 171° |
| 2026-05-06 17:42 | 60.42886 | 5.17238 | 2761 ft | 182 kts | 173° |
| 2026-05-06 17:42 | 60.41638 | 5.17669 | 2508 ft | 182 kts | 174° |
| 2026-05-06 17:43 | 60.40399 | 5.18091 | 2222 ft | 177 kts | 175° |
| 2026-05-06 17:43 | 60.39211 | 5.18465 | 1972 ft | 171 kts | 173° |
| 2026-05-06 17:43 | 60.38096 | 5.18925 | 1783 ft | 164 kts | 172° |
| 2026-05-06 17:43 | 60.36984 | 5.19353 | 1597 ft | 159 kts | 174° |
| 2026-05-06 17:44 | 60.35918 | 5.19697 | 1374 ft | 149 kts | 177° |
| 2026-05-06 17:44 | 60.34912 | 5.19975 | 1133 ft | 147 kts | 175° |
| 2026-05-06 17:44 | 60.33910 | 5.20314 | 945 ft | 144 kts | 175° |
| 2026-05-06 17:44 | 60.32923 | 5.20632 | 779 ft | 143 kts | 175° |
| 2026-05-06 17:45 | 60.31943 | 5.20957 | 539 ft | 142 kts | 174° |
| 2026-05-06 17:45 | 60.30966 | 5.21276 | 322 ft | 142 kts | 173° |
| 2026-05-06 17:45 | 60.30005 | 5.21595 | 173 ft | 138 kts | 174° |
| 2026-05-06 17:45 | 60.29176 | 5.21871 | 163 ft | 91 kts | 171° |
| 2026-05-06 17:46 | 60.28769 | 5.22007 | 165 ft | 43 kts | 171° |
| 2026-05-06 17:46 | 60.28657 | 5.22167 | 164 ft | 15 kts | 83° |
| 2026-05-06 17:46 | 60.28664 | 5.22232 | 166 ft | 0 kts | 77° |
| 2026-05-06 17:46 | 60.28664 | 5.22233 | 166 ft | 0 kts | 77° |
| 2026-05-06 17:47 | 60.28664 | 5.22234 | 166 ft | 0 kts | 77° |
| 2026-05-06 17:47 | 60.28665 | 5.22242 | 166 ft | 3 kts | 77° |
| 2026-05-06 17:47 | 60.28729 | 5.22344 | 166 ft | 16 kts | 342° |
| 2026-05-06 17:48 | 60.28809 | 5.22314 | 165 ft | 19 kts | 353° |
| 2026-05-06 17:48 | 60.28904 | 5.22285 | 164 ft | 12 kts | 352° |
| 2026-05-06 17:48 | 60.28920 | 5.22291 | 165 ft | 1 kts | 31° |
| 2026-05-06 17:48 | 60.28932 | 5.22338 | 166 ft | 7 kts | 83° |
| 2026-05-06 17:49 | 60.28903 | 5.22408 | 169 ft | 4 kts | 165° |
| 2026-05-06 17:49 | 60.28887 | 5.22433 | 170 ft | 1 kts | 105° |
| 2026-05-06 17:49 | 60.28888 | 5.22469 | 172 ft | 6 kts | 83° |
| 2026-05-06 17:49 | 60.28892 | 5.22540 | 175 ft | 1 kts | 83° |
| 2026-05-06 17:50 | 60.28892 | 5.22546 | 175 ft | 0 kts | 83° |
| 2026-05-06 17:50 | 60.28892 | 5.22619 | 176 ft | 0 kts | 90° |
| 2026-05-06 17:50 | 60.28893 | 5.22548 | 176 ft | 0 kts | 90° |
| 2026-05-06 17:50 | 60.28891 | 5.22516 | 175 ft | 0 kts | 83° |
| 2026-05-06 17:51 | 60.28891 | 5.22519 | 175 ft | 2 kts | 85° |
| 2026-05-06 17:51 | 60.28892 | 5.22542 | 175 ft | 0 kts | 84° |